createdAt,value
2022-08-22T00:02:42.144Z,80.50
2022-08-22T00:03:04.653Z,84.06
2022-08-22T00:04:10.636Z,100.00
2022-08-22T00:06:48.763Z,100.00
2022-08-22T00:09:29.764Z,100.00
2022-08-22T00:12:08.717Z,100.00
2022-08-22T00:14:42.560Z,100.00
2022-08-22T00:17:37.480Z,100.00
2022-08-22T00:20:14.218Z,100.00
2022-08-22T00:22:52.071Z,100.00
2022-08-22T00:25:36.683Z,100.00
2022-08-22T00:28:11.019Z,100.00
2022-08-22T00:30:48.703Z,100.00
2022-08-22T00:33:23.477Z,100.00
2022-08-22T00:36:03.819Z,100.00
2022-08-22T00:38:37.731Z,100.00
2022-08-22T00:41:11.546Z,100.00
2022-08-22T00:44:04.355Z,100.00
2022-08-22T00:46:54.687Z,100.00
2022-08-22T00:49:41.626Z,100.00
2022-08-22T00:52:31.046Z,100.00
2022-08-22T00:55:18.627Z,100.00
2022-08-22T00:58:13.307Z,100.00
2022-08-22T01:00:45.482Z,100.00
2022-08-22T01:03:41.559Z,100.00
2022-08-22T01:06:24.478Z,100.00
2022-08-22T01:09:04.204Z,100.00
2022-08-22T01:11:48.973Z,100.00
2022-08-22T01:14:34.867Z,100.00
2022-08-22T01:17:41.827Z,100.00
2022-08-22T01:20:40.217Z,100.00
2022-08-22T01:23:49.524Z,100.00
2022-08-22T01:26:48.650Z,100.00
2022-08-22T01:29:46.295Z,100.00
2022-08-22T01:32:44.662Z,100.00
2022-08-22T01:35:36.503Z,100.00
2022-08-22T01:38:25.528Z,100.00
2022-08-22T01:41:27.799Z,100.00
2022-08-22T01:44:10.259Z,100.00
2022-08-22T01:46:55.282Z,100.00
2022-08-22T01:49:27.623Z,100.00
2022-08-22T01:52:03.046Z,100.00
2022-08-22T01:54:46.064Z,100.00
2022-08-22T01:57:14.830Z,100.00
2022-08-22T01:59:45.515Z,100.00
2022-08-22T02:02:32.088Z,100.00
2022-08-22T02:05:07.319Z,100.00
2022-08-22T02:07:49.688Z,100.00
2022-08-22T02:10:24.350Z,100.00
2022-08-22T02:13:03.064Z,100.00
2022-08-22T02:15:45.440Z,100.00
2022-08-22T02:18:18.582Z,100.00
2022-08-22T02:21:00.315Z,100.00
2022-08-22T02:23:37.914Z,100.00
2022-08-22T02:26:10.787Z,100.00
2022-08-22T02:28:57.177Z,100.00
2022-08-22T02:31:38.170Z,100.00
2022-08-22T02:34:25.626Z,100.00
2022-08-22T02:37:11.323Z,100.00
2022-08-22T02:39:47.062Z,100.00
2022-08-22T02:42:25.040Z,100.00
2022-08-22T02:45:01.216Z,100.00
2022-08-22T02:47:36.539Z,100.00
2022-08-22T02:50:19.475Z,100.00
2022-08-22T02:52:58.558Z,100.00
2022-08-22T02:55:47.361Z,100.00
2022-08-22T02:58:23.139Z,100.00
2022-08-22T03:01:09.744Z,100.00
2022-08-22T03:03:41.673Z,100.00
2022-08-22T03:06:37.427Z,100.00
2022-08-22T03:09:19.887Z,100.00
2022-08-22T03:11:52.320Z,100.00
2022-08-22T03:14:27.591Z,100.00
2022-08-22T03:17:02.777Z,100.00
2022-08-22T03:19:44.826Z,100.00
2022-08-22T03:22:17.424Z,100.00
2022-08-22T03:24:54.104Z,100.00
2022-08-22T03:27:33.141Z,100.00
2022-08-22T03:30:07.293Z,100.00
2022-08-22T03:32:55.023Z,100.00
2022-08-22T03:35:34.862Z,100.00
2022-08-22T03:38:19.853Z,100.00
2022-08-22T03:41:04.152Z,100.00
2022-08-22T03:43:53.957Z,100.00
2022-08-22T03:47:00.055Z,100.00
2022-08-22T03:49:52.980Z,100.00
2022-08-22T03:53:18.548Z,100.00
2022-08-22T03:56:21.386Z,100.00
2022-08-22T03:59:14.838Z,100.00
2022-08-22T04:02:35.837Z,100.00
2022-08-22T04:05:54.304Z,100.00
2022-08-22T04:08:43.871Z,100.00
2022-08-22T04:11:48.331Z,100.00
2022-08-22T04:14:40.425Z,100.00
2022-08-22T04:17:27.706Z,100.00
2022-08-22T04:20:29.298Z,100.00
2022-08-22T04:23:20.565Z,100.00
2022-08-22T04:25:54.496Z,100.00
2022-08-22T04:28:31.332Z,100.00
2022-08-22T04:31:06.084Z,100.00
2022-08-22T04:33:41.161Z,100.00
2022-08-22T04:36:14.500Z,100.00
2022-08-22T04:38:47.722Z,100.00
2022-08-22T04:41:20.902Z,100.00
2022-08-22T04:43:55.198Z,100.00
2022-08-22T04:46:37.131Z,100.00
2022-08-22T04:49:08.901Z,100.00
2022-08-22T04:51:41.480Z,100.00
2022-08-22T04:54:25.243Z,100.00
2022-08-22T04:57:07.732Z,100.00
2022-08-22T04:59:37.406Z,100.00
2022-08-22T05:02:11.112Z,100.00
2022-08-22T05:04:42.120Z,100.00
2022-08-22T05:07:16.005Z,100.00
2022-08-22T05:09:49.531Z,100.00
2022-08-22T05:12:27.984Z,100.00
2022-08-22T05:15:03.775Z,100.00
2022-08-22T05:17:34.017Z,100.00
2022-08-22T05:20:07.926Z,100.00
2022-08-22T05:22:41.511Z,100.00
2022-08-22T05:25:13.617Z,100.00
2022-08-22T05:27:45.607Z,100.00
2022-08-22T05:30:17.015Z,100.00
2022-08-22T05:32:53.076Z,100.00
2022-08-22T05:35:30.523Z,100.00
2022-08-22T05:37:58.758Z,100.00
2022-08-22T05:40:29.088Z,100.00
2022-08-22T05:42:59.096Z,100.00
2022-08-22T05:45:28.832Z,100.00
2022-08-22T05:48:05.195Z,100.00
2022-08-22T05:50:38.067Z,100.00
2022-08-22T05:53:10.217Z,100.00
2022-08-22T05:55:51.413Z,100.00
2022-08-22T05:58:38.316Z,100.00
2022-08-22T06:01:18.159Z,100.00
2022-08-22T06:04:00.322Z,100.00
2022-08-22T06:06:31.173Z,100.00
2022-08-22T06:09:03.935Z,100.00
2022-08-22T06:11:40.053Z,100.00
2022-08-22T06:14:19.100Z,100.00
2022-08-22T06:17:01.407Z,100.00
2022-08-22T06:19:31.270Z,100.00
2022-08-22T06:21:59.394Z,100.00
2022-08-22T06:24:28.821Z,100.00
2022-08-22T06:27:05.163Z,100.00
2022-08-22T06:29:36.291Z,100.00
2022-08-22T06:32:12.652Z,100.00
2022-08-22T06:34:45.932Z,100.00
2022-08-22T06:37:21.285Z,100.00
2022-08-22T06:39:53.169Z,100.00
2022-08-22T06:42:25.938Z,100.00
2022-08-22T06:44:58.367Z,100.00
2022-08-22T06:47:31.039Z,100.00
2022-08-22T06:50:03.832Z,100.00
2022-08-22T06:52:36.060Z,100.00
2022-08-22T06:55:08.244Z,100.00
2022-08-22T06:57:38.887Z,100.00
2022-08-22T07:00:11.731Z,100.00
2022-08-22T07:02:43.535Z,100.00
2022-08-22T07:05:22.735Z,100.00
2022-08-22T07:07:51.336Z,100.00
2022-08-22T07:10:22.640Z,100.00
2022-08-22T07:12:53.580Z,100.00
2022-08-22T07:15:24.993Z,100.00
2022-08-22T07:18:00.256Z,100.00
2022-08-22T07:20:35.183Z,100.00
2022-08-22T07:23:07.783Z,100.00
2022-08-22T07:25:51.731Z,98.56
2022-08-22T07:28:37.128Z,98.52
2022-08-22T07:31:28.315Z,98.77
2022-08-22T07:34:13.941Z,96.91
2022-08-22T07:36:51.015Z,95.77
2022-08-22T07:39:28.489Z,96.51
2022-08-22T07:42:07.104Z,95.76
2022-08-22T07:44:43.414Z,98.27
2022-08-22T07:47:18.040Z,97.15
2022-08-22T07:49:58.726Z,91.18
2022-08-22T07:52:37.641Z,88.71
2022-08-22T07:55:21.058Z,89.23
2022-08-22T07:57:55.908Z,89.46
2022-08-22T08:00:25.301Z,86.93
2022-08-22T08:02:58.243Z,85.74
2022-08-22T08:05:30.387Z,85.07
2022-08-22T08:08:15.695Z,84.42
2022-08-22T08:10:43.892Z,81.68
2022-08-22T08:13:17.653Z,83.93
2022-08-22T08:15:46.694Z,82.99
2022-08-22T08:18:19.398Z,82.27
2022-08-22T08:20:51.967Z,81.79
2022-08-22T08:23:23.544Z,82.68
2022-08-22T08:26:01.409Z,74.75
2022-08-22T08:28:35.117Z,78.01
2022-08-22T08:31:20.820Z,76.08
2022-08-22T08:33:51.456Z,73.00
2022-08-22T08:36:37.162Z,66.15
2022-08-22T08:39:16.845Z,67.21
2022-08-22T08:42:02.801Z,65.37
2022-08-22T08:44:51.229Z,67.11
2022-08-22T08:47:43.324Z,64.26
2022-08-22T08:50:45.835Z,63.64
2022-08-22T08:53:35.360Z,60.52
2022-08-22T08:56:16.602Z,65.55
2022-08-22T08:58:55.765Z,63.83
2022-08-22T09:01:59.859Z,62.77
2022-08-22T09:04:46.548Z,62.65
2022-08-22T09:07:39.648Z,63.63
2022-08-22T09:10:22.239Z,62.21
2022-08-22T09:13:13.112Z,57.85
2022-08-22T09:16:05.179Z,55.79
2022-08-22T09:19:13.046Z,54.27
2022-08-22T09:22:14.339Z,54.28
2022-08-22T09:25:06.050Z,55.42
2022-08-22T09:27:37.225Z,54.68
2022-08-22T09:30:11.957Z,52.68
2022-08-22T09:32:48.592Z,53.37
2022-08-22T09:35:28.010Z,55.35
2022-08-22T09:38:13.449Z,56.51
2022-08-22T09:40:47.272Z,55.37
2022-08-22T09:43:22.740Z,53.78
2022-08-22T09:46:06.358Z,50.16
2022-08-22T09:48:44.451Z,48.71
2022-08-22T09:51:31.948Z,47.60
2022-08-22T09:54:14.798Z,49.85
2022-08-22T09:56:55.827Z,43.17
2022-08-22T09:59:31.713Z,46.15
2022-08-22T10:02:15.499Z,44.08
2022-08-22T10:04:47.933Z,46.52
2022-08-22T10:07:43.971Z,47.83
2022-08-22T10:10:26.243Z,47.90
2022-08-22T10:13:01.904Z,46.21
2022-08-22T10:15:38.390Z,42.81
2022-08-22T10:18:19.561Z,43.50
2022-08-22T10:20:57.925Z,44.47
2022-08-22T10:23:35.086Z,44.50
2022-08-22T10:26:23.160Z,44.03
2022-08-22T10:28:57.678Z,44.62
2022-08-22T10:31:45.107Z,45.02
2022-08-22T10:34:30.560Z,41.77
2022-08-22T10:37:10.392Z,39.30
2022-08-22T10:39:45.013Z,41.98
2022-08-22T10:42:27.869Z,40.03
2022-08-22T10:45:23.774Z,42.37
2022-08-22T10:48:43.319Z,43.14
2022-08-22T10:51:21.179Z,43.59
2022-08-22T10:54:01.379Z,43.19
2022-08-22T10:56:36.064Z,41.40
2022-08-22T10:59:18.965Z,40.22
2022-08-22T11:02:02.073Z,37.61
2022-08-22T11:04:48.247Z,41.20
2022-08-22T11:07:40.486Z,41.76
2022-08-22T11:10:24.904Z,40.15
2022-08-22T11:13:10.178Z,41.30
2022-08-22T11:15:57.532Z,40.07
2022-08-22T11:18:57.877Z,40.14
2022-08-22T11:21:43.984Z,39.48
2022-08-22T11:24:55.923Z,38.02
2022-08-22T11:27:39.831Z,36.03
2022-08-22T11:30:18.152Z,36.80
2022-08-22T11:33:46.115Z,38.04
2022-08-22T11:36:26.211Z,36.92
2022-08-22T11:39:03.630Z,35.52
2022-08-22T11:41:43.618Z,38.54
2022-08-22T11:44:18.104Z,36.55
2022-08-22T11:46:49.151Z,36.63
2022-08-22T11:49:40.597Z,38.40
2022-08-22T11:52:26.917Z,35.88
2022-08-22T11:55:15.550Z,37.33
2022-08-22T11:57:48.436Z,38.28
2022-08-22T12:00:31.957Z,40.68
2022-08-22T12:03:43.832Z,40.05
2022-08-22T12:06:34.695Z,41.90
2022-08-22T12:09:22.172Z,39.44
2022-08-22T12:12:04.729Z,39.96
2022-08-22T12:14:39.317Z,39.39
2022-08-22T12:17:55.576Z,40.25
2022-08-22T12:20:35.056Z,38.15
2022-08-22T12:23:43.216Z,37.56
2022-08-22T12:26:22.226Z,36.68
2022-08-22T12:29:04.590Z,39.09
2022-08-22T12:32:27.616Z,39.44
2022-08-22T12:35:14.297Z,38.68
2022-08-22T12:38:03.658Z,39.21
2022-08-22T12:40:56.611Z,42.68
2022-08-22T12:43:42.835Z,40.61
2022-08-22T12:46:17.848Z,40.05
2022-08-22T12:49:00.514Z,38.61
2022-08-22T12:51:46.749Z,38.06
2022-08-22T12:54:40.960Z,41.51
2022-08-22T12:57:24.373Z,40.07
2022-08-22T12:59:58.061Z,41.32
2022-08-22T13:02:29.803Z,41.87
2022-08-22T13:05:03.618Z,42.00
2022-08-22T13:07:36.223Z,40.34
2022-08-22T13:10:37.549Z,41.20
2022-08-22T13:13:12.137Z,41.05
2022-08-22T13:15:46.720Z,39.40
2022-08-22T13:18:30.718Z,40.65
2022-08-22T13:21:05.503Z,40.44
2022-08-22T13:23:39.644Z,39.35
2022-08-22T13:26:31.609Z,39.45
2022-08-22T13:31:59.209Z,39.08
2022-08-22T13:34:39.786Z,40.90
2022-08-22T13:37:16.749Z,41.74
2022-08-22T13:39:49.306Z,41.34
2022-08-22T13:42:20.394Z,41.08
2022-08-22T13:45:02.402Z,39.13
2022-08-22T13:47:32.479Z,40.10
2022-08-22T13:50:11.230Z,40.12
2022-08-22T13:52:45.814Z,41.63
2022-08-22T13:55:28.855Z,42.27
2022-08-22T13:58:06.724Z,42.03
2022-08-22T14:01:25.418Z,38.69
2022-08-22T14:04:01.158Z,40.49
2022-08-22T14:06:41.443Z,41.56
2022-08-22T14:09:29.574Z,41.09
2022-08-22T14:12:11.948Z,39.68
2022-08-22T14:14:43.208Z,40.27
2022-08-22T14:17:18.228Z,39.84
2022-08-22T14:19:59.374Z,41.54
2022-08-22T14:22:35.116Z,41.06
2022-08-22T14:25:09.197Z,39.36
2022-08-22T14:27:57.839Z,39.86
2022-08-22T14:30:29.529Z,38.47
2022-08-22T14:33:02.461Z,39.85
2022-08-22T14:35:37.885Z,40.94
2022-08-22T14:38:30.312Z,40.74
2022-08-22T14:41:05.392Z,40.47
2022-08-22T14:43:52.667Z,41.77
2022-08-22T14:46:26.564Z,42.78
2022-08-22T14:49:13.650Z,40.62
2022-08-22T14:51:48.019Z,39.76
2022-08-22T14:54:21.924Z,40.30
2022-08-22T14:56:54.748Z,40.32
2022-08-22T14:59:35.330Z,38.75
2022-08-22T15:02:07.815Z,40.10
2022-08-22T15:04:39.027Z,37.94
2022-08-22T15:07:07.868Z,39.81
2022-08-22T15:09:40.427Z,38.03
2022-08-22T15:12:24.671Z,37.30
2022-08-22T15:14:55.731Z,39.76
2022-08-22T15:17:40.803Z,37.58
2022-08-22T15:20:27.795Z,36.97
2022-08-22T15:22:59.059Z,40.63
2022-08-22T15:25:31.248Z,39.70
2022-08-22T15:28:05.128Z,42.11
2022-08-22T15:30:44.562Z,39.74
2022-08-22T15:33:17.164Z,40.72
2022-08-22T15:35:48.827Z,39.77
2022-08-22T15:38:29.437Z,41.27
2022-08-22T15:41:17.958Z,40.55
2022-08-22T15:43:49.930Z,40.96
2022-08-22T15:46:29.798Z,40.55
2022-08-22T15:49:01.539Z,40.42
2022-08-22T15:51:37.518Z,38.24
2022-08-22T15:54:16.243Z,39.48
2022-08-22T15:57:16.263Z,40.85
2022-08-22T15:59:55.536Z,41.21
2022-08-22T16:02:35.249Z,39.66
2022-08-22T16:05:23.660Z,40.02
2022-08-22T16:08:03.612Z,39.73
2022-08-22T16:10:37.711Z,40.22
2022-08-22T16:13:34.801Z,40.78
2022-08-22T16:16:11.564Z,41.08
2022-08-22T16:19:22.155Z,40.76
2022-08-22T16:22:12.929Z,41.60
2022-08-22T16:25:04.131Z,40.78
2022-08-22T16:27:32.539Z,42.04
2022-08-22T16:30:06.493Z,41.75
2022-08-22T16:32:36.997Z,41.12
2022-08-22T16:35:05.183Z,41.66
2022-08-22T16:37:51.036Z,41.43
2022-08-22T16:40:26.321Z,41.90
2022-08-22T16:43:16.922Z,42.12
2022-08-22T16:45:47.283Z,42.37
2022-08-22T16:48:33.401Z,43.45
2022-08-22T16:51:12.634Z,43.27
2022-08-22T16:54:13.519Z,43.08
2022-08-22T16:56:57.376Z,44.45
2022-08-22T16:59:39.286Z,44.69
2022-08-22T17:02:32.302Z,46.48
2022-08-22T17:05:18.450Z,48.58
2022-08-22T17:08:01.965Z,48.49
2022-08-22T17:10:46.877Z,48.93
2022-08-22T17:13:33.016Z,47.48
2022-08-22T17:16:29.946Z,48.50
2022-08-22T17:19:14.155Z,47.37
2022-08-22T17:21:50.733Z,48.75
2022-08-22T17:24:33.589Z,50.13
2022-08-22T17:27:07.712Z,48.27
2022-08-22T17:29:45.366Z,48.54
2022-08-22T17:32:21.789Z,47.72
2022-08-22T17:34:58.203Z,47.29
2022-08-22T17:37:45.392Z,47.46
2022-08-22T17:40:29.600Z,47.76
2022-08-22T17:43:14.665Z,46.96
2022-08-22T17:46:00.181Z,48.16
2022-08-22T17:48:32.544Z,49.01
2022-08-22T17:51:12.000Z,49.17
2022-08-22T17:53:49.968Z,50.19
2022-08-22T17:56:23.413Z,49.66
2022-08-22T17:59:02.944Z,51.75
2022-08-22T18:01:49.997Z,51.79
2022-08-22T18:04:26.068Z,53.61
2022-08-22T18:07:04.150Z,53.63
2022-08-22T18:09:41.227Z,53.67
2022-08-22T18:12:19.578Z,58.03
2022-08-22T18:14:53.011Z,58.33
2022-08-22T18:17:26.905Z,57.47
2022-08-22T18:20:03.773Z,57.08
2022-08-22T18:22:42.396Z,58.84
2022-08-22T18:25:28.286Z,59.89
2022-08-22T18:28:00.908Z,60.45
2022-08-22T18:30:32.069Z,60.87
2022-08-22T18:33:05.165Z,59.34
2022-08-22T18:35:42.509Z,59.70
2022-08-22T18:38:23.194Z,62.23
2022-08-22T18:40:58.225Z,61.52
2022-08-22T18:43:36.391Z,61.93
2022-08-22T18:46:26.700Z,63.84
2022-08-22T18:49:14.609Z,63.98
2022-08-22T18:51:42.878Z,64.67
2022-08-22T18:54:37.174Z,64.70
2022-08-22T18:57:30.497Z,69.43
2022-08-22T19:00:10.078Z,66.71
2022-08-22T19:03:10.926Z,71.52
2022-08-22T19:06:07.260Z,69.88
2022-08-22T19:08:53.638Z,70.67
2022-08-22T19:11:37.224Z,68.31
2022-08-22T19:14:20.593Z,71.08
2022-08-22T19:20:44.330Z,72.63
2022-08-22T19:23:54.950Z,68.58
2022-08-22T19:26:52.547Z,66.60
2022-08-22T19:29:56.888Z,65.31
2022-08-22T19:32:59.044Z,68.85
2022-08-22T19:35:30.832Z,65.11
2022-08-22T19:38:00.738Z,62.80
2022-08-22T19:40:53.249Z,62.42
2022-08-22T19:43:32.762Z,62.66
2022-08-22T19:46:05.022Z,64.49
2022-08-22T19:48:43.464Z,65.16
2022-08-22T19:51:16.116Z,66.55
2022-08-22T19:53:58.727Z,66.33
2022-08-22T19:56:37.948Z,64.96
2022-08-22T19:59:16.568Z,67.35
2022-08-22T20:01:56.166Z,67.71
2022-08-22T20:04:55.155Z,65.73
2022-08-22T20:07:33.819Z,69.40
2022-08-22T20:10:14.445Z,71.14
2022-08-22T20:13:05.749Z,67.61
2022-08-22T20:15:59.279Z,68.94
2022-08-22T20:19:14.820Z,68.12
2022-08-22T20:22:02.082Z,66.24
2022-08-22T20:24:39.728Z,67.94
2022-08-22T20:27:15.485Z,66.80
2022-08-22T20:29:49.662Z,67.03
2022-08-22T20:32:19.995Z,66.86
2022-08-22T20:34:54.821Z,67.25
2022-08-22T20:37:40.302Z,69.28
2022-08-22T20:40:54.746Z,68.55
2022-08-22T20:43:21.749Z,72.04
2022-08-22T20:46:02.989Z,73.82
2022-08-22T20:48:39.267Z,76.42
2022-08-22T20:51:10.080Z,75.89
2022-08-22T20:53:37.841Z,77.97
2022-08-22T20:56:08.159Z,74.35
2022-08-22T20:58:38.527Z,79.47
2022-08-22T21:01:11.546Z,80.68
2022-08-22T21:03:43.931Z,81.84
2022-08-22T21:06:16.832Z,81.63
2022-08-22T21:08:46.685Z,79.99
2022-08-22T21:11:39.693Z,79.92
2022-08-22T21:14:19.151Z,80.17
2022-08-22T21:16:46.879Z,77.13
2022-08-22T21:19:19.474Z,75.92
2022-08-22T21:21:48.735Z,73.34
2022-08-22T21:24:16.776Z,71.69
2022-08-22T21:26:50.268Z,71.85
2022-08-22T21:29:26.621Z,72.44
2022-08-22T21:32:08.101Z,71.33
2022-08-22T21:34:42.301Z,70.93
2022-08-22T21:37:15.376Z,72.16
2022-08-22T21:39:46.538Z,73.31
2022-08-22T21:42:23.633Z,72.80
2022-08-22T21:44:57.386Z,73.92
2022-08-22T21:47:32.732Z,75.64
2022-08-22T21:50:03.190Z,75.39
2022-08-22T21:52:34.913Z,79.49
2022-08-22T21:55:24.572Z,78.45
2022-08-22T21:58:07.908Z,78.91
2022-08-22T22:00:49.473Z,81.89
2022-08-22T22:03:19.856Z,79.20
2022-08-22T22:05:49.333Z,79.16
2022-08-22T22:08:18.961Z,81.26
2022-08-22T22:10:48.930Z,83.55
2022-08-22T22:13:17.948Z,84.50
2022-08-22T22:15:48.662Z,81.65
2022-08-22T22:18:19.920Z,83.88
2022-08-22T22:20:48.438Z,85.32
2022-08-22T22:23:18.538Z,86.13
2022-08-22T22:25:47.115Z,85.41
2022-08-22T22:28:18.195Z,81.67
2022-08-22T22:30:50.328Z,78.46
2022-08-22T22:33:18.739Z,77.89
2022-08-22T22:35:46.546Z,75.78
2022-08-22T22:38:14.750Z,76.13
2022-08-22T22:40:44.059Z,77.02
2022-08-22T22:43:12.370Z,78.50
2022-08-22T22:45:40.913Z,76.45
2022-08-22T22:48:09.026Z,80.86
2022-08-22T22:50:40.594Z,80.12
2022-08-22T22:53:09.593Z,87.67
2022-08-22T22:55:41.690Z,88.36
2022-08-22T22:58:13.489Z,88.17
2022-08-22T23:00:44.319Z,88.47
2022-08-22T23:03:12.916Z,89.22
2022-08-22T23:05:40.720Z,91.27
2022-08-22T23:08:08.717Z,92.23
2022-08-22T23:10:36.513Z,91.61
2022-08-22T23:13:06.655Z,92.92
2022-08-22T23:15:36.016Z,93.87
2022-08-22T23:18:03.765Z,90.64
2022-08-22T23:20:31.591Z,92.50
2022-08-22T23:23:00.675Z,93.84
2022-08-22T23:25:28.378Z,93.74
2022-08-22T23:27:56.727Z,93.53
2022-08-22T23:30:24.540Z,95.15
2022-08-22T23:32:53.841Z,94.51
2022-08-22T23:35:21.631Z,97.16
2022-08-22T23:37:49.341Z,96.72
2022-08-22T23:40:17.187Z,97.97
2022-08-22T23:42:45.319Z,97.32
2022-08-22T23:45:13.084Z,97.62
2022-08-22T23:47:41.038Z,96.94
2022-08-22T23:50:10.696Z,97.55
2022-08-22T23:52:38.416Z,98.35
2022-08-22T23:55:07.021Z,99.57
2022-08-22T23:57:34.746Z,98.17
